sensor_id;sensor_type;location;lat;lon;timestamp;P1;durP1;ratioP1;P2;durP2;ratioP2
82871;SDS011;72646;43.596;1.428;2023-10-09T00:01:01;10.05;;;4.22;;
82871;SDS011;72646;43.596;1.428;2023-10-09T00:03:29;9.85;;;4.00;;
82871;SDS011;72646;43.596;1.428;2023-10-09T00:05:55;9.98;;;4.07;;
82871;SDS011;72646;43.596;1.428;2023-10-09T00:08:21;8.70;;;3.85;;
82871;SDS011;72646;43.596;1.428;2023-10-09T00:10:50;9.60;;;4.28;;
82871;SDS011;72646;43.596;1.428;2023-10-09T00:13:23;8.13;;;3.78;;
82871;SDS011;72646;43.596;1.428;2023-10-09T00:16:05;8.45;;;3.75;;
82871;SDS011;72646;43.596;1.428;2023-10-09T00:18:40;8.57;;;3.95;;
82871;SDS011;72646;43.596;1.428;2023-10-09T00:21:15;9.60;;;3.70;;
82871;SDS011;72646;43.596;1.428;2023-10-09T00:23:41;8.98;;;3.80;;
82871;SDS011;72646;43.596;1.428;2023-10-09T00:26:07;9.20;;;3.55;;
82871;SDS011;72646;43.596;1.428;2023-10-09T00:28:37;11.00;;;3.72;;
82871;SDS011;72646;43.596;1.428;2023-10-09T00:31:08;9.13;;;3.72;;
82871;SDS011;72646;43.596;1.428;2023-10-09T00:33:43;7.85;;;3.60;;
82871;SDS011;72646;43.596;1.428;2023-10-09T00:36:08;10.30;;;3.95;;
82871;SDS011;72646;43.596;1.428;2023-10-09T00:38:38;9.70;;;4.03;;
82871;SDS011;72646;43.596;1.428;2023-10-09T00:41:15;8.65;;;3.50;;
82871;SDS011;72646;43.596;1.428;2023-10-09T00:43:45;9.60;;;4.30;;
82871;SDS011;72646;43.596;1.428;2023-10-09T00:46:14;7.88;;;3.67;;
82871;SDS011;72646;43.596;1.428;2023-10-09T00:48:43;10.15;;;3.80;;
82871;SDS011;72646;43.596;1.428;2023-10-09T00:51:13;9.52;;;4.03;;
82871;SDS011;72646;43.596;1.428;2023-10-09T00:54:02;9.02;;;4.40;;
82871;SDS011;72646;43.596;1.428;2023-10-09T00:56:38;8.50;;;3.70;;
82871;SDS011;72646;43.596;1.428;2023-10-09T00:59:06;9.02;;;4.03;;
82871;SDS011;72646;43.596;1.428;2023-10-09T01:01:40;8.52;;;3.78;;
82871;SDS011;72646;43.596;1.428;2023-10-09T01:04:10;8.48;;;3.67;;
82871;SDS011;72646;43.596;1.428;2023-10-09T01:06:43;8.68;;;4.00;;
82871;SDS011;72646;43.596;1.428;2023-10-09T01:09:13;8.52;;;4.10;;
82871;SDS011;72646;43.596;1.428;2023-10-09T01:11:40;8.35;;;3.92;;
82871;SDS011;72646;43.596;1.428;2023-10-09T01:14:14;10.13;;;4.00;;
82871;SDS011;72646;43.596;1.428;2023-10-09T01:16:46;8.40;;;4.00;;
82871;SDS011;72646;43.596;1.428;2023-10-09T01:19:12;9.90;;;3.95;;
82871;SDS011;72646;43.596;1.428;2023-10-09T01:21:44;8.20;;;3.60;;
82871;SDS011;72646;43.596;1.428;2023-10-09T01:24:10;9.40;;;3.75;;
82871;SDS011;72646;43.596;1.428;2023-10-09T01:26:39;10.32;;;3.90;;
82871;SDS011;72646;43.596;1.428;2023-10-09T01:29:08;8.82;;;4.18;;
82871;SDS011;72646;43.596;1.428;2023-10-09T01:31:43;9.20;;;3.90;;
82871;SDS011;72646;43.596;1.428;2023-10-09T01:34:25;8.38;;;3.70;;
82871;SDS011;72646;43.596;1.428;2023-10-09T01:37:19;7.60;;;3.75;;
82871;SDS011;72646;43.596;1.428;2023-10-09T01:39:54;7.95;;;3.65;;
82871;SDS011;72646;43.596;1.428;2023-10-09T01:42:24;8.40;;;3.50;;
82871;SDS011;72646;43.596;1.428;2023-10-09T01:44:50;8.52;;;3.60;;
82871;SDS011;72646;43.596;1.428;2023-10-09T01:47:18;8.63;;;3.80;;
82871;SDS011;72646;43.596;1.428;2023-10-09T01:49:44;9.55;;;3.85;;
82871;SDS011;72646;43.596;1.428;2023-10-09T01:52:14;9.27;;;4.10;;
82871;SDS011;72646;43.596;1.428;2023-10-09T01:54:43;9.60;;;3.75;;
82871;SDS011;72646;43.596;1.428;2023-10-09T01:57:14;8.75;;;3.80;;
82871;SDS011;72646;43.596;1.428;2023-10-09T01:59:44;9.10;;;3.40;;
82871;SDS011;72646;43.596;1.428;2023-10-09T02:02:12;8.45;;;3.75;;
82871;SDS011;72646;43.596;1.428;2023-10-09T02:04:54;10.43;;;3.55;;
82871;SDS011;72646;43.596;1.428;2023-10-09T02:07:35;14.05;;;4.20;;
82871;SDS011;72646;43.596;1.428;2023-10-09T02:10:12;9.15;;;4.03;;
82871;SDS011;72646;43.596;1.428;2023-10-09T02:12:57;8.05;;;3.60;;
82871;SDS011;72646;43.596;1.428;2023-10-09T02:15:29;7.53;;;3.80;;
82871;SDS011;72646;43.596;1.428;2023-10-09T02:18:19;9.45;;;4.18;;
82871;SDS011;72646;43.596;1.428;2023-10-09T02:23:27;9.13;;;3.65;;
82871;SDS011;72646;43.596;1.428;2023-10-09T02:26:04;9.05;;;3.95;;
82871;SDS011;72646;43.596;1.428;2023-10-09T02:29:03;8.05;;;3.60;;
82871;SDS011;72646;43.596;1.428;2023-10-09T02:31:40;8.82;;;3.80;;
82871;SDS011;72646;43.596;1.428;2023-10-09T02:34:06;8.27;;;3.42;;
82871;SDS011;72646;43.596;1.428;2023-10-09T02:36:36;7.90;;;3.83;;
82871;SDS011;72646;43.596;1.428;2023-10-09T02:39:09;7.32;;;3.28;;
82871;SDS011;72646;43.596;1.428;2023-10-09T02:41:48;8.80;;;3.58;;
82871;SDS011;72646;43.596;1.428;2023-10-09T02:44:15;8.43;;;3.65;;
82871;SDS011;72646;43.596;1.428;2023-10-09T02:46:41;8.15;;;4.10;;
82871;SDS011;72646;43.596;1.428;2023-10-09T02:49:09;9.57;;;3.80;;
82871;SDS011;72646;43.596;1.428;2023-10-09T02:51:40;8.43;;;3.75;;
82871;SDS011;72646;43.596;1.428;2023-10-09T02:54:09;8.60;;;3.88;;
82871;SDS011;72646;43.596;1.428;2023-10-09T02:56:51;10.13;;;3.75;;
82871;SDS011;72646;43.596;1.428;2023-10-09T02:59:22;9.63;;;3.70;;
82871;SDS011;72646;43.596;1.428;2023-10-09T03:01:48;8.25;;;3.70;;
82871;SDS011;72646;43.596;1.428;2023-10-09T03:04:13;13.05;;;3.92;;
82871;SDS011;72646;43.596;1.428;2023-10-09T03:06:40;9.20;;;3.90;;
82871;SDS011;72646;43.596;1.428;2023-10-09T03:09:14;9.52;;;4.38;;
82871;SDS011;72646;43.596;1.428;2023-10-09T03:14:11;8.93;;;3.35;;
82871;SDS011;72646;43.596;1.428;2023-10-09T03:19:03;8.85;;;4.10;;
82871;SDS011;72646;43.596;1.428;2023-10-09T03:21:28;9.57;;;3.80;;
82871;SDS011;72646;43.596;1.428;2023-10-09T03:23:54;9.43;;;4.00;;
82871;SDS011;72646;43.596;1.428;2023-10-09T03:26:20;9.68;;;4.05;;
82871;SDS011;72646;43.596;1.428;2023-10-09T03:28:47;8.23;;;3.90;;
82871;SDS011;72646;43.596;1.428;2023-10-09T03:33:39;9.77;;;3.97;;
82871;SDS011;72646;43.596;1.428;2023-10-09T03:36:05;8.70;;;4.20;;
82871;SDS011;72646;43.596;1.428;2023-10-09T03:38:34;7.68;;;3.60;;
82871;SDS011;72646;43.596;1.428;2023-10-09T03:41:04;10.07;;;4.00;;
82871;SDS011;72646;43.596;1.428;2023-10-09T03:43:34;8.85;;;3.80;;
82871;SDS011;72646;43.596;1.428;2023-10-09T03:46:11;8.63;;;3.85;;
82871;SDS011;72646;43.596;1.428;2023-10-09T03:48:49;8.75;;;3.78;;
82871;SDS011;72646;43.596;1.428;2023-10-09T03:51:17;8.20;;;3.92;;
82871;SDS011;72646;43.596;1.428;2023-10-09T03:53:48;10.63;;;4.15;;
82871;SDS011;72646;43.596;1.428;2023-10-09T03:56:15;8.65;;;3.55;;
82871;SDS011;72646;43.596;1.428;2023-10-09T03:58:45;9.13;;;3.95;;
82871;SDS011;72646;43.596;1.428;2023-10-09T04:01:12;9.20;;;3.83;;
82871;SDS011;72646;43.596;1.428;2023-10-09T04:03:48;9.20;;;4.07;;
82871;SDS011;72646;43.596;1.428;2023-10-09T04:08:48;8.07;;;3.67;;
82871;SDS011;72646;43.596;1.428;2023-10-09T04:11:16;8.75;;;4.00;;
82871;SDS011;72646;43.596;1.428;2023-10-09T04:13:43;8.40;;;3.70;;
82871;SDS011;72646;43.596;1.428;2023-10-09T04:16:11;9.52;;;3.42;;
82871;SDS011;72646;43.596;1.428;2023-10-09T04:19:03;9.00;;;4.03;;
82871;SDS011;72646;43.596;1.428;2023-10-09T04:21:35;9.40;;;3.83;;
82871;SDS011;72646;43.596;1.428;2023-10-09T04:24:02;8.57;;;3.72;;
82871;SDS011;72646;43.596;1.428;2023-10-09T04:26:47;10.85;;;3.47;;
82871;SDS011;72646;43.596;1.428;2023-10-09T04:29:20;10.40;;;3.80;;
82871;SDS011;72646;43.596;1.428;2023-10-09T04:34:24;7.60;;;3.50;;
82871;SDS011;72646;43.596;1.428;2023-10-09T04:36:53;7.43;;;3.53;;
82871;SDS011;72646;43.596;1.428;2023-10-09T04:39:29;8.15;;;3.67;;
82871;SDS011;72646;43.596;1.428;2023-10-09T04:41:55;8.25;;;3.70;;
82871;SDS011;72646;43.596;1.428;2023-10-09T04:44:43;8.38;;;3.63;;
82871;SDS011;72646;43.596;1.428;2023-10-09T04:47:27;9.25;;;4.10;;
82871;SDS011;72646;43.596;1.428;2023-10-09T04:50:06;7.63;;;3.53;;
82871;SDS011;72646;43.596;1.428;2023-10-09T04:55:44;8.90;;;3.42;;
82871;SDS011;72646;43.596;1.428;2023-10-09T04:58:25;7.95;;;3.55;;
82871;SDS011;72646;43.596;1.428;2023-10-09T05:00:51;8.30;;;3.40;;
82871;SDS011;72646;43.596;1.428;2023-10-09T05:03:23;8.10;;;3.53;;
82871;SDS011;72646;43.596;1.428;2023-10-09T05:06:10;8.07;;;3.65;;
82871;SDS011;72646;43.596;1.428;2023-10-09T05:08:46;8.15;;;3.80;;
82871;SDS011;72646;43.596;1.428;2023-10-09T05:11:12;8.45;;;3.70;;
82871;SDS011;72646;43.596;1.428;2023-10-09T05:13:59;7.60;;;3.35;;
82871;SDS011;72646;43.596;1.428;2023-10-09T05:16:37;10.75;;;3.92;;
82871;SDS011;72646;43.596;1.428;2023-10-09T05:19:13;9.30;;;3.83;;
82871;SDS011;72646;43.596;1.428;2023-10-09T05:22:02;10.65;;;4.25;;
82871;SDS011;72646;43.596;1.428;2023-10-09T05:24:32;8.65;;;3.78;;
82871;SDS011;72646;43.596;1.428;2023-10-09T05:27:09;10.98;;;3.97;;
82871;SDS011;72646;43.596;1.428;2023-10-09T05:29:42;9.80;;;3.78;;
82871;SDS011;72646;43.596;1.428;2023-10-09T05:32:24;10.45;;;3.60;;
82871;SDS011;72646;43.596;1.428;2023-10-09T05:35:00;10.90;;;3.70;;
82871;SDS011;72646;43.596;1.428;2023-10-09T05:39:59;11.48;;;4.85;;
82871;SDS011;72646;43.596;1.428;2023-10-09T05:42:43;10.65;;;4.30;;
82871;SDS011;72646;43.596;1.428;2023-10-09T05:45:16;12.13;;;4.32;;
82871;SDS011;72646;43.596;1.428;2023-10-09T05:50:29;15.48;;;4.38;;
82871;SDS011;72646;43.596;1.428;2023-10-09T05:53:02;16.27;;;5.07;;
82871;SDS011;72646;43.596;1.428;2023-10-09T05:55:29;14.82;;;4.88;;
82871;SDS011;72646;43.596;1.428;2023-10-09T05:58:14;12.07;;;4.32;;
82871;SDS011;72646;43.596;1.428;2023-10-09T06:00:58;10.80;;;4.15;;
82871;SDS011;72646;43.596;1.428;2023-10-09T06:03:50;11.40;;;4.68;;
82871;SDS011;72646;43.596;1.428;2023-10-09T06:06:37;10.25;;;4.53;;
82871;SDS011;72646;43.596;1.428;2023-10-09T06:09:21;13.70;;;4.60;;
82871;SDS011;72646;43.596;1.428;2023-10-09T06:11:47;21.90;;;8.82;;
82871;SDS011;72646;43.596;1.428;2023-10-09T06:14:17;20.60;;;9.43;;
82871;SDS011;72646;43.596;1.428;2023-10-09T06:16:56;16.33;;;5.13;;
82871;SDS011;72646;43.596;1.428;2023-10-09T06:19:22;11.75;;;4.32;;
82871;SDS011;72646;43.596;1.428;2023-10-09T06:21:55;13.38;;;4.18;;
82871;SDS011;72646;43.596;1.428;2023-10-09T06:24:38;10.18;;;3.80;;
82871;SDS011;72646;43.596;1.428;2023-10-09T06:27:10;16.25;;;4.43;;
82871;SDS011;72646;43.596;1.428;2023-10-09T06:29:42;11.95;;;4.03;;
82871;SDS011;72646;43.596;1.428;2023-10-09T06:32:13;12.30;;;4.43;;
82871;SDS011;72646;43.596;1.428;2023-10-09T06:34:56;10.07;;;3.78;;
82871;SDS011;72646;43.596;1.428;2023-10-09T06:37:43;11.13;;;4.20;;
82871;SDS011;72646;43.596;1.428;2023-10-09T06:43:05;8.88;;;3.80;;
82871;SDS011;72646;43.596;1.428;2023-10-09T06:48:23;10.07;;;3.67;;
82871;SDS011;72646;43.596;1.428;2023-10-09T06:51:05;9.98;;;3.95;;
82871;SDS011;72646;43.596;1.428;2023-10-09T06:53:50;11.82;;;3.97;;
82871;SDS011;72646;43.596;1.428;2023-10-09T06:58:50;8.80;;;3.55;;
82871;SDS011;72646;43.596;1.428;2023-10-09T07:01:20;10.45;;;3.88;;
82871;SDS011;72646;43.596;1.428;2023-10-09T07:03:57;9.38;;;4.07;;
82871;SDS011;72646;43.596;1.428;2023-10-09T07:06:35;10.50;;;3.85;;
82871;SDS011;72646;43.596;1.428;2023-10-09T07:09:01;10.50;;;4.07;;
82871;SDS011;72646;43.596;1.428;2023-10-09T07:11:33;10.35;;;4.40;;
82871;SDS011;72646;43.596;1.428;2023-10-09T07:14:15;9.85;;;4.20;;
82871;SDS011;72646;43.596;1.428;2023-10-09T07:17:17;8.98;;;3.88;;
82871;SDS011;72646;43.596;1.428;2023-10-09T07:19:58;9.60;;;3.80;;
82871;SDS011;72646;43.596;1.428;2023-10-09T07:22:50;10.15;;;4.75;;
82871;SDS011;72646;43.596;1.428;2023-10-09T07:25:18;10.90;;;4.38;;
82871;SDS011;72646;43.596;1.428;2023-10-09T07:28:04;10.20;;;4.15;;
82871;SDS011;72646;43.596;1.428;2023-10-09T07:30:43;11.23;;;4.20;;
82871;SDS011;72646;43.596;1.428;2023-10-09T07:33:08;11.32;;;3.88;;
82871;SDS011;72646;43.596;1.428;2023-10-09T07:35:40;11.73;;;4.35;;
82871;SDS011;72646;43.596;1.428;2023-10-09T07:38:11;8.88;;;4.30;;
82871;SDS011;72646;43.596;1.428;2023-10-09T07:40:40;10.65;;;4.45;;
82871;SDS011;72646;43.596;1.428;2023-10-09T07:43:30;11.98;;;4.80;;
82871;SDS011;72646;43.596;1.428;2023-10-09T07:46:09;10.07;;;4.10;;
82871;SDS011;72646;43.596;1.428;2023-10-09T07:48:55;11.57;;;4.45;;
82871;SDS011;72646;43.596;1.428;2023-10-09T07:51:22;10.63;;;4.43;;
82871;SDS011;72646;43.596;1.428;2023-10-09T07:53:52;12.52;;;4.63;;
82871;SDS011;72646;43.596;1.428;2023-10-09T07:56:32;9.88;;;4.63;;
82871;SDS011;72646;43.596;1.428;2023-10-09T07:59:03;10.50;;;4.22;;
82871;SDS011;72646;43.596;1.428;2023-10-09T08:01:35;8.32;;;4.28;;
82871;SDS011;72646;43.596;1.428;2023-10-09T08:04:20;10.20;;;4.63;;
82871;SDS011;72646;43.596;1.428;2023-10-09T08:07:13;10.95;;;4.65;;
82871;SDS011;72646;43.596;1.428;2023-10-09T08:09:53;11.82;;;4.97;;
82871;SDS011;72646;43.596;1.428;2023-10-09T08:12:37;12.20;;;4.50;;
82871;SDS011;72646;43.596;1.428;2023-10-09T08:15:15;12.35;;;4.80;;
82871;SDS011;72646;43.596;1.428;2023-10-09T08:17:44;10.13;;;4.50;;
82871;SDS011;72646;43.596;1.428;2023-10-09T08:20:16;11.15;;;4.20;;
82871;SDS011;72646;43.596;1.428;2023-10-09T08:22:42;11.63;;;4.57;;
82871;SDS011;72646;43.596;1.428;2023-10-09T08:25:09;12.90;;;5.20;;
82871;SDS011;72646;43.596;1.428;2023-10-09T08:27:51;12.13;;;4.65;;
82871;SDS011;72646;43.596;1.428;2023-10-09T08:30:22;14.32;;;5.20;;
82871;SDS011;72646;43.596;1.428;2023-10-09T08:32:51;10.60;;;4.82;;
82871;SDS011;72646;43.596;1.428;2023-10-09T08:35:26;11.85;;;4.60;;
82871;SDS011;72646;43.596;1.428;2023-10-09T08:37:58;10.40;;;4.65;;
82871;SDS011;72646;43.596;1.428;2023-10-09T08:40:33;11.48;;;4.63;;
82871;SDS011;72646;43.596;1.428;2023-10-09T08:43:15;11.63;;;4.68;;
82871;SDS011;72646;43.596;1.428;2023-10-09T08:45:54;12.88;;;4.63;;
82871;SDS011;72646;43.596;1.428;2023-10-09T08:48:26;12.52;;;4.32;;
82871;SDS011;72646;43.596;1.428;2023-10-09T08:50:53;12.57;;;4.57;;
82871;SDS011;72646;43.596;1.428;2023-10-09T08:53:20;12.15;;;4.95;;
82871;SDS011;72646;43.596;1.428;2023-10-09T08:55:46;12.75;;;4.68;;
82871;SDS011;72646;43.596;1.428;2023-10-09T08:58:14;13.30;;;4.30;;
82871;SDS011;72646;43.596;1.428;2023-10-09T09:00:49;12.82;;;4.15;;
82871;SDS011;72646;43.596;1.428;2023-10-09T09:03:16;11.43;;;4.32;;
82871;SDS011;72646;43.596;1.428;2023-10-09T09:05:48;13.40;;;4.72;;
82871;SDS011;72646;43.596;1.428;2023-10-09T09:08:25;12.02;;;4.68;;
82871;SDS011;72646;43.596;1.428;2023-10-09T09:13:47;12.65;;;4.35;;
82871;SDS011;72646;43.596;1.428;2023-10-09T09:16:29;11.60;;;4.50;;
82871;SDS011;72646;43.596;1.428;2023-10-09T09:18:57;12.00;;;4.35;;
82871;SDS011;72646;43.596;1.428;2023-10-09T09:24:10;9.85;;;4.18;;
82871;SDS011;72646;43.596;1.428;2023-10-09T09:27:00;9.82;;;3.72;;
82871;SDS011;72646;43.596;1.428;2023-10-09T09:29:43;11.52;;;4.05;;
82871;SDS011;72646;43.596;1.428;2023-10-09T09:32:31;10.73;;;4.15;;
82871;SDS011;72646;43.596;1.428;2023-10-09T09:35:17;9.63;;;4.03;;
82871;SDS011;72646;43.596;1.428;2023-10-09T09:37:52;11.25;;;3.78;;
82871;SDS011;72646;43.596;1.428;2023-10-09T09:40:19;12.85;;;4.72;;
82871;SDS011;72646;43.596;1.428;2023-10-09T09:43:06;11.40;;;4.00;;
82871;SDS011;72646;43.596;1.428;2023-10-09T09:45:46;9.85;;;4.00;;
82871;SDS011;72646;43.596;1.428;2023-10-09T09:48:14;9.10;;;3.97;;
82871;SDS011;72646;43.596;1.428;2023-10-09T09:50:42;10.77;;;4.63;;
82871;SDS011;72646;43.596;1.428;2023-10-09T09:53:12;8.85;;;4.00;;
82871;SDS011;72646;43.596;1.428;2023-10-09T09:58:22;9.20;;;4.03;;
82871;SDS011;72646;43.596;1.428;2023-10-09T10:00:50;8.80;;;4.18;;
82871;SDS011;72646;43.596;1.428;2023-10-09T10:03:20;9.50;;;3.70;;
82871;SDS011;72646;43.596;1.428;2023-10-09T10:05:51;10.50;;;3.70;;
82871;SDS011;72646;43.596;1.428;2023-10-09T10:08:21;10.40;;;3.90;;
82871;SDS011;72646;43.596;1.428;2023-10-09T10:10:56;8.80;;;3.75;;
82871;SDS011;72646;43.596;1.428;2023-10-09T10:14:13;9.52;;;4.38;;
82871;SDS011;72646;43.596;1.428;2023-10-09T10:16:23;8.13;;;3.72;;
82871;SDS011;72646;43.596;1.428;2023-10-09T10:18:56;9.60;;;4.05;;
82871;SDS011;72646;43.596;1.428;2023-10-09T10:21:39;9.15;;;3.67;;
82871;SDS011;72646;43.596;1.428;2023-10-09T10:27:14;10.07;;;3.90;;
82871;SDS011;72646;43.596;1.428;2023-10-09T10:29:43;9.18;;;3.95;;
82871;SDS011;72646;43.596;1.428;2023-10-09T10:32:11;9.48;;;3.85;;
82871;SDS011;72646;43.596;1.428;2023-10-09T10:37:19;8.90;;;4.07;;
82871;SDS011;72646;43.596;1.428;2023-10-09T10:39:53;9.43;;;3.40;;
82871;SDS011;72646;43.596;1.428;2023-10-09T10:42:24;10.95;;;3.90;;
82871;SDS011;72646;43.596;1.428;2023-10-09T10:45:02;8.50;;;3.78;;
82871;SDS011;72646;43.596;1.428;2023-10-09T10:47:48;8.85;;;3.65;;
82871;SDS011;72646;43.596;1.428;2023-10-09T10:50:14;9.93;;;4.07;;
82871;SDS011;72646;43.596;1.428;2023-10-09T10:53:07;7.80;;;3.70;;
82871;SDS011;72646;43.596;1.428;2023-10-09T10:56:00;7.38;;;3.53;;
82871;SDS011;72646;43.596;1.428;2023-10-09T10:58:38;8.85;;;3.95;;
82871;SDS011;72646;43.596;1.428;2023-10-09T11:01:12;9.82;;;3.90;;
82871;SDS011;72646;43.596;1.428;2023-10-09T11:03:40;8.85;;;3.70;;
82871;SDS011;72646;43.596;1.428;2023-10-09T11:06:39;8.73;;;3.60;;
82871;SDS011;72646;43.596;1.428;2023-10-09T11:09:07;8.55;;;3.88;;
82871;SDS011;72646;43.596;1.428;2023-10-09T11:12:03;8.23;;;3.80;;
82871;SDS011;72646;43.596;1.428;2023-10-09T11:14:47;9.95;;;3.72;;
82871;SDS011;72646;43.596;1.428;2023-10-09T11:17:34;8.85;;;3.83;;
82871;SDS011;72646;43.596;1.428;2023-10-09T11:20:01;8.10;;;3.28;;
82871;SDS011;72646;43.596;1.428;2023-10-09T11:22:49;8.50;;;3.35;;
82871;SDS011;72646;43.596;1.428;2023-10-09T11:25:39;9.52;;;3.30;;
82871;SDS011;72646;43.596;1.428;2023-10-09T11:31:11;8.32;;;3.33;;
82871;SDS011;72646;43.596;1.428;2023-10-09T11:33:46;8.05;;;3.00;;
82871;SDS011;72646;43.596;1.428;2023-10-09T11:36:19;9.13;;;3.40;;
82871;SDS011;72646;43.596;1.428;2023-10-09T11:38:57;7.65;;;3.50;;
82871;SDS011;72646;43.596;1.428;2023-10-09T11:41:44;8.40;;;3.63;;
82871;SDS011;72646;43.596;1.428;2023-10-09T11:44:09;8.00;;;3.78;;
82871;SDS011;72646;43.596;1.428;2023-10-09T11:47:00;7.65;;;3.72;;
82871;SDS011;72646;43.596;1.428;2023-10-09T11:49:48;8.75;;;3.72;;
82871;SDS011;72646;43.596;1.428;2023-10-09T11:52:13;8.60;;;3.80;;
82871;SDS011;72646;43.596;1.428;2023-10-09T11:54:39;8.65;;;3.90;;
82871;SDS011;72646;43.596;1.428;2023-10-09T11:57:04;7.85;;;3.45;;
82871;SDS011;72646;43.596;1.428;2023-10-09T11:59:30;8.35;;;3.70;;
82871;SDS011;72646;43.596;1.428;2023-10-09T12:02:03;9.40;;;3.65;;
82871;SDS011;72646;43.596;1.428;2023-10-09T12:04:29;7.85;;;3.50;;
82871;SDS011;72646;43.596;1.428;2023-10-09T12:06:58;9.07;;;3.47;;
82871;SDS011;72646;43.596;1.428;2023-10-09T12:09:33;11.25;;;3.50;;
82871;SDS011;72646;43.596;1.428;2023-10-09T12:12:02;9.63;;;3.70;;
82871;SDS011;72646;43.596;1.428;2023-10-09T12:14:32;8.55;;;4.00;;
82871;SDS011;72646;43.596;1.428;2023-10-09T12:17:06;8.90;;;3.50;;
82871;SDS011;72646;43.596;1.428;2023-10-09T12:19:36;9.80;;;4.20;;
82871;SDS011;72646;43.596;1.428;2023-10-09T12:22:03;9.95;;;3.90;;
82871;SDS011;72646;43.596;1.428;2023-10-09T12:24:31;8.88;;;4.13;;
82871;SDS011;72646;43.596;1.428;2023-10-09T12:26:58;7.93;;;3.60;;
82871;SDS011;72646;43.596;1.428;2023-10-09T12:29:24;9.30;;;4.20;;
82871;SDS011;72646;43.596;1.428;2023-10-09T12:31:55;8.10;;;3.75;;
82871;SDS011;72646;43.596;1.428;2023-10-09T12:34:24;10.77;;;3.97;;
82871;SDS011;72646;43.596;1.428;2023-10-09T12:36:54;9.30;;;3.75;;
82871;SDS011;72646;43.596;1.428;2023-10-09T12:39:20;8.48;;;3.92;;
82871;SDS011;72646;43.596;1.428;2023-10-09T12:41:47;8.57;;;3.97;;
82871;SDS011;72646;43.596;1.428;2023-10-09T12:44:13;9.70;;;4.13;;
82871;SDS011;72646;43.596;1.428;2023-10-09T12:46:45;9.20;;;4.00;;
82871;SDS011;72646;43.596;1.428;2023-10-09T12:49:20;8.82;;;4.05;;
82871;SDS011;72646;43.596;1.428;2023-10-09T12:51:52;11.35;;;4.53;;
82871;SDS011;72646;43.596;1.428;2023-10-09T12:56:52;9.32;;;4.00;;
82871;SDS011;72646;43.596;1.428;2023-10-09T12:59:17;8.75;;;4.20;;
82871;SDS011;72646;43.596;1.428;2023-10-09T13:01:44;10.48;;;4.00;;
82871;SDS011;72646;43.596;1.428;2023-10-09T13:04:14;9.23;;;4.05;;
82871;SDS011;72646;43.596;1.428;2023-10-09T13:06:44;8.45;;;3.90;;
82871;SDS011;72646;43.596;1.428;2023-10-09T13:09:15;8.45;;;3.85;;
82871;SDS011;72646;43.596;1.428;2023-10-09T13:11:49;8.48;;;4.32;;
82871;SDS011;72646;43.596;1.428;2023-10-09T13:14:15;9.02;;;3.95;;
82871;SDS011;72646;43.596;1.428;2023-10-09T13:16:47;9.02;;;4.25;;
82871;SDS011;72646;43.596;1.428;2023-10-09T13:19:15;8.55;;;3.67;;
82871;SDS011;72646;43.596;1.428;2023-10-09T13:21:42;9.38;;;3.83;;
82871;SDS011;72646;43.596;1.428;2023-10-09T13:24:08;8.65;;;3.83;;
82871;SDS011;72646;43.596;1.428;2023-10-09T13:26:38;8.02;;;3.70;;
82871;SDS011;72646;43.596;1.428;2023-10-09T13:29:06;8.95;;;3.63;;
82871;SDS011;72646;43.596;1.428;2023-10-09T13:31:34;9.35;;;3.78;;
82871;SDS011;72646;43.596;1.428;2023-10-09T13:34:03;9.80;;;4.15;;
82871;SDS011;72646;43.596;1.428;2023-10-09T13:36:34;8.35;;;3.88;;
82871;SDS011;72646;43.596;1.428;2023-10-09T13:39:01;9.23;;;3.95;;
82871;SDS011;72646;43.596;1.428;2023-10-09T13:41:52;8.13;;;3.53;;
82871;SDS011;72646;43.596;1.428;2023-10-09T13:44:29;9.18;;;3.67;;
82871;SDS011;72646;43.596;1.428;2023-10-09T13:46:56;8.60;;;3.88;;
82871;SDS011;72646;43.596;1.428;2023-10-09T13:49:23;8.02;;;3.60;;
82871;SDS011;72646;43.596;1.428;2023-10-09T13:51:54;7.75;;;3.80;;
82871;SDS011;72646;43.596;1.428;2023-10-09T13:54:22;7.40;;;3.30;;
82871;SDS011;72646;43.596;1.428;2023-10-09T13:56:57;8.90;;;3.80;;
82871;SDS011;72646;43.596;1.428;2023-10-09T13:59:23;8.38;;;4.10;;
82871;SDS011;72646;43.596;1.428;2023-10-09T14:01:53;10.13;;;3.92;;
82871;SDS011;72646;43.596;1.428;2023-10-09T14:04:22;8.10;;;4.10;;
82871;SDS011;72646;43.596;1.428;2023-10-09T14:06:51;8.27;;;3.72;;
82871;SDS011;72646;43.596;1.428;2023-10-09T14:09:24;7.47;;;3.67;;
82871;SDS011;72646;43.596;1.428;2023-10-09T14:11:57;8.90;;;3.88;;
82871;SDS011;72646;43.596;1.428;2023-10-09T14:14:38;8.63;;;3.70;;
82871;SDS011;72646;43.596;1.428;2023-10-09T14:17:12;8.65;;;3.78;;
82871;SDS011;72646;43.596;1.428;2023-10-09T14:19:42;8.43;;;3.28;;
82871;SDS011;72646;43.596;1.428;2023-10-09T14:22:15;7.95;;;3.78;;
82871;SDS011;72646;43.596;1.428;2023-10-09T14:24:45;8.82;;;3.88;;
82871;SDS011;72646;43.596;1.428;2023-10-09T14:27:15;7.43;;;3.35;;
82871;SDS011;72646;43.596;1.428;2023-10-09T14:29:47;8.88;;;3.55;;
82871;SDS011;72646;43.596;1.428;2023-10-09T14:32:13;10.10;;;3.90;;
82871;SDS011;72646;43.596;1.428;2023-10-09T14:34:39;8.18;;;3.90;;
82871;SDS011;72646;43.596;1.428;2023-10-09T14:37:15;10.02;;;4.22;;
82871;SDS011;72646;43.596;1.428;2023-10-09T14:39:44;8.07;;;3.55;;
82871;SDS011;72646;43.596;1.428;2023-10-09T14:42:16;7.53;;;3.40;;
82871;SDS011;72646;43.596;1.428;2023-10-09T14:44:48;9.40;;;3.90;;
82871;SDS011;72646;43.596;1.428;2023-10-09T14:47:15;8.98;;;3.78;;
82871;SDS011;72646;43.596;1.428;2023-10-09T14:49:41;8.68;;;3.70;;
82871;SDS011;72646;43.596;1.428;2023-10-09T14:52:11;8.45;;;3.70;;
82871;SDS011;72646;43.596;1.428;2023-10-09T14:54:41;8.07;;;3.50;;
82871;SDS011;72646;43.596;1.428;2023-10-09T14:57:07;9.65;;;3.67;;
82871;SDS011;72646;43.596;1.428;2023-10-09T14:59:36;7.60;;;3.53;;
82871;SDS011;72646;43.596;1.428;2023-10-09T15:02:02;8.75;;;3.60;;
82871;SDS011;72646;43.596;1.428;2023-10-09T15:04:30;7.72;;;3.60;;
82871;SDS011;72646;43.596;1.428;2023-10-09T15:06:56;7.78;;;3.22;;
82871;SDS011;72646;43.596;1.428;2023-10-09T15:09:22;6.68;;;3.05;;
82871;SDS011;72646;43.596;1.428;2023-10-09T15:11:48;9.02;;;3.20;;
82871;SDS011;72646;43.596;1.428;2023-10-09T15:14:18;7.85;;;3.33;;
82871;SDS011;72646;43.596;1.428;2023-10-09T15:16:44;7.53;;;3.55;;
82871;SDS011;72646;43.596;1.428;2023-10-09T15:19:11;7.78;;;3.30;;
82871;SDS011;72646;43.596;1.428;2023-10-09T15:21:37;7.75;;;3.47;;
82871;SDS011;72646;43.596;1.428;2023-10-09T15:24:09;8.55;;;3.60;;
82871;SDS011;72646;43.596;1.428;2023-10-09T15:26:37;9.70;;;3.67;;
82871;SDS011;72646;43.596;1.428;2023-10-09T15:29:03;7.88;;;3.78;;
82871;SDS011;72646;43.596;1.428;2023-10-09T15:31:31;7.05;;;2.90;;
82871;SDS011;72646;43.596;1.428;2023-10-09T15:33:58;7.82;;;3.50;;
82871;SDS011;72646;43.596;1.428;2023-10-09T15:36:24;7.20;;;3.20;;
82871;SDS011;72646;43.596;1.428;2023-10-09T15:38:54;7.72;;;3.35;;
82871;SDS011;72646;43.596;1.428;2023-10-09T15:41:25;8.38;;;3.10;;
82871;SDS011;72646;43.596;1.428;2023-10-09T15:43:55;7.15;;;3.38;;
82871;SDS011;72646;43.596;1.428;2023-10-09T15:46:22;8.18;;;3.45;;
82871;SDS011;72646;43.596;1.428;2023-10-09T15:48:47;7.20;;;3.30;;
82871;SDS011;72646;43.596;1.428;2023-10-09T15:51:16;7.50;;;3.30;;
82871;SDS011;72646;43.596;1.428;2023-10-09T15:53:42;8.00;;;3.20;;
82871;SDS011;72646;43.596;1.428;2023-10-09T15:56:11;7.28;;;3.20;;
82871;SDS011;72646;43.596;1.428;2023-10-09T15:58:41;7.75;;;3.50;;
82871;SDS011;72646;43.596;1.428;2023-10-09T16:01:12;6.85;;;3.00;;
82871;SDS011;72646;43.596;1.428;2023-10-09T16:03:41;9.05;;;3.30;;
82871;SDS011;72646;43.596;1.428;2023-10-09T16:06:08;7.05;;;3.30;;
82871;SDS011;72646;43.596;1.428;2023-10-09T16:08:37;8.23;;;3.58;;